Bookmark and Share
Track history (hours):
 

Heydar Aliyev

Last reported at 2014-Apr-10 16:21 UTC. Time now 2014-Apr-18 20:46 UTC.
Position N 45°08' E 036°34'.
Warning: this ship's position is 8 days out of date.

Length 274 m; draft 9.3 m.

Type: Ship (hazmat cat A). MMSI: 215213000.

NotesDate/timePositionNaut miles runAvg speedWind from/ knotsBaromVisibWave heightAir tempDewpointWater temp
2014-Apr-10 16:21N 45°08' E 036°34'0 0.0
2014-Apr-10 14:33N 45°08' E 036°34'0 0.0
2014-Apr-10 13:33N 45°08' E 036°34'0 0.0
2014-Apr-10 09:03N 45°08' E 036°34'0 0.3
2014-Apr-10 08:19N 45°08' E 036°34'6 6.1
2014-Apr-10 07:20N 45°02' E 036°31'910.6
2014-Apr-10 06:29N 44°53' E 036°34'0 0.0
2014-Apr-09 08:31N 44°53' E 036°34'0 0.0
2014-Apr-09 07:31N 44°53' E 036°34'0 0.0
2014-Apr-07 20:31N 44°53' E 036°34'0 0.0
2014-Apr-07 06:31N 44°53' E 036°34'0 0.0
2014-Apr-07 05:31N 44°53' E 036°34'0 0.0
2014-Apr-07 04:31N 44°53' E 036°34'0 0.0
2014-Apr-07 03:31N 44°53' E 036°34'0 0.0
2014-Apr-07 01:25N 44°53' E 036°34'46 0.9
2014-Apr-05 01:06N 44°09' E 036°14'2013.2
2014-Apr-04 23:33N 44°02' E 035°48'1813.4
2014-Apr-04 22:12N 43°55' E 035°24'913.5
2014-Apr-04 21:33N 43°51' E 035°13'1413.8
2014-Apr-04 20:33N 43°46' E 034°56'1414.1
2014-Apr-04 19:33N 43°42' E 034°37'1413.9
2014-Apr-04 18:33N 43°38' E 034°19'237 9.5
2014-Apr-03 17:33N 41°48' E 029°33'1414.0
2014-Apr-03 16:32N 41°35' E 029°25'1714.1
2014-Apr-03 15:19N 41°20' E 029°14'166 4.8
2014-Apr-02 04:24N 39°59' E 026°03'1110.0
2014-Apr-02 03:16N 39°51' E 025°52'4 5.7
2014-Apr-02 02:31N 39°48' E 025°57'0 0.1
2014-Apr-01 21:33N 39°48' E 025°57'0 0.0
2014-Apr-01 20:30N 39°48' E 025°57'0 0.0
2014-Apr-01 19:33N 39°48' E 025°57'0 0.0
2014-Apr-01 18:33N 39°48' E 025°57'0 0.0
2014-Apr-01 17:33N 39°48' E 025°57'0 0.1
2014-Apr-01 16:33N 39°48' E 025°57'0 0.0
2014-Apr-01 15:15N 39°48' E 025°57'0 0.0
2014-Apr-01 14:27N 39°48' E 025°57'0 0.0
2014-Apr-01 13:30N 39°48' E 025°57'0 0.0
2014-Apr-01 11:18N 39°48' E 025°57'0 0.2
2014-Apr-01 10:24N 39°48' E 025°57'4 4.5
2014-Apr-01 09:33N 39°46' E 025°53'1313.2
2014-Apr-01 08:33N 39°36' E 025°42'3414.3
2014-Apr-01 06:12N 39°06' E 025°22'914.6
2014-Apr-01 05:34N 38°58' E 025°16'1414.2
2014-Apr-01 04:33N 38°45' E 025°08'1414.1
2014-Apr-01 03:33N 38°32' E 025°00'1514.0
2014-Apr-01 02:28N 38°19' E 024°51'2613.8
2014-Apr-01 00:33N 37°55' E 024°37'1413.9
2014-Mar-31 23:34N 37°42' E 024°32'2813.8
2014-Mar-31 21:33N 37°18' E 024°14'1414.4
2014-Mar-31 20:33N 37°04' E 024°07'1413.9
2014-Mar-31 19:33N 36°52' E 024°01'1514.1
2014-Mar-31 18:30N 36°40' E 023°49'  

Dump ship's entire track history

sailing weather and tide predictions

Heydar Aliyev — 9HFS7 — position and weather